sensor_id;sensor_type;location;lat;lon;timestamp;P1;durP1;ratioP1;P2;durP2;ratioP2
24843;SDS011;12921;51.392;12.240;2023-02-15T00:01:11;0.20;;;0.20;;
24843;SDS011;12921;51.392;12.240;2023-02-15T00:03:37;0.20;;;0.20;;
24843;SDS011;12921;51.392;12.240;2023-02-15T00:06:04;7.47;;;6.88;;
24843;SDS011;12921;51.392;12.240;2023-02-15T00:08:30;0.20;;;0.20;;
24843;SDS011;12921;51.392;12.240;2023-02-15T00:11:06;0.73;;;0.73;;
24843;SDS011;12921;51.392;12.240;2023-02-15T00:13:33;0.63;;;0.63;;
24843;SDS011;12921;51.392;12.240;2023-02-15T00:16:04;2.63;;;1.70;;
24843;SDS011;12921;51.392;12.240;2023-02-15T00:18:30;1.75;;;1.70;;
24843;SDS011;12921;51.392;12.240;2023-02-15T00:20:56;7.22;;;4.20;;
24843;SDS011;12921;51.392;12.240;2023-02-15T00:23:22;10.73;;;5.50;;
24843;SDS011;12921;51.392;12.240;2023-02-15T00:25:48;1.40;;;1.23;;
24843;SDS011;12921;51.392;12.240;2023-02-15T00:28:15;3.53;;;1.15;;
24843;SDS011;12921;51.392;12.240;2023-02-15T00:30:41;0.30;;;0.30;;
24843;SDS011;12921;51.392;12.240;2023-02-15T00:33:07;0.38;;;0.38;;
24843;SDS011;12921;51.392;12.240;2023-02-15T00:35:33;9.02;;;5.53;;
24843;SDS011;12921;51.392;12.240;2023-02-15T00:37:59;22.75;;;8.73;;
24843;SDS011;12921;51.392;12.240;2023-02-15T00:40:25;9.50;;;4.63;;
24843;SDS011;12921;51.392;12.240;2023-02-15T00:42:51;7.20;;;6.43;;
24843;SDS011;12921;51.392;12.240;2023-02-15T00:45:17;6.70;;;5.55;;
24843;SDS011;12921;51.392;12.240;2023-02-15T00:47:43;0.90;;;0.90;;
24843;SDS011;12921;51.392;12.240;2023-02-15T00:50:09;0.20;;;0.20;;
24843;SDS011;12921;51.392;12.240;2023-02-15T00:52:35;0.20;;;0.20;;
24843;SDS011;12921;51.392;12.240;2023-02-15T00:55:01;0.63;;;0.63;;
24843;SDS011;12921;51.392;12.240;2023-02-15T00:57:27;1.27;;;1.27;;
24843;SDS011;12921;51.392;12.240;2023-02-15T00:59:53;0.40;;;0.40;;
24843;SDS011;12921;51.392;12.240;2023-02-15T01:02:19;5.35;;;3.60;;
24843;SDS011;12921;51.392;12.240;2023-02-15T01:04:45;0.20;;;0.20;;
24843;SDS011;12921;51.392;12.240;2023-02-15T01:07:11;1.85;;;1.58;;
24843;SDS011;12921;51.392;12.240;2023-02-15T01:09:39;0.57;;;0.57;;
24843;SDS011;12921;51.392;12.240;2023-02-15T01:12:05;3.70;;;3.40;;
24843;SDS011;12921;51.392;12.240;2023-02-15T01:14:31;6.28;;;3.35;;
24843;SDS011;12921;51.392;12.240;2023-02-15T01:16:57;6.32;;;5.80;;
24843;SDS011;12921;51.392;12.240;2023-02-15T01:19:23;9.77;;;3.72;;
24843;SDS011;12921;51.392;12.240;2023-02-15T01:21:49;2.13;;;1.40;;
24843;SDS011;12921;51.392;12.240;2023-02-15T01:24:15;0.32;;;0.32;;
24843;SDS011;12921;51.392;12.240;2023-02-15T01:26:41;5.45;;;2.47;;
24843;SDS011;12921;51.392;12.240;2023-02-15T01:29:07;10.15;;;4.93;;
24843;SDS011;12921;51.392;12.240;2023-02-15T01:31:33;8.70;;;6.97;;
24843;SDS011;12921;51.392;12.240;2023-02-15T01:33:59;20.80;;;8.10;;
24843;SDS011;12921;51.392;12.240;2023-02-15T01:36:25;23.42;;;10.88;;
24843;SDS011;12921;51.392;12.240;2023-02-15T01:38:51;6.03;;;5.57;;
24843;SDS011;12921;51.392;12.240;2023-02-15T01:41:17;6.38;;;4.38;;
24843;SDS011;12921;51.392;12.240;2023-02-15T01:43:55;3.75;;;2.05;;
24843;SDS011;12921;51.392;12.240;2023-02-15T01:46:32;1.80;;;1.33;;
24843;SDS011;12921;51.392;12.240;2023-02-15T01:49:00;6.90;;;6.30;;
24843;SDS011;12921;51.392;12.240;2023-02-15T01:51:28;6.45;;;5.35;;
24843;SDS011;12921;51.392;12.240;2023-02-15T01:54:06;9.15;;;4.13;;
24843;SDS011;12921;51.392;12.240;2023-02-15T01:56:36;4.80;;;2.95;;
24843;SDS011;12921;51.392;12.240;2023-02-15T01:59:05;12.35;;;7.22;;
24843;SDS011;12921;51.392;12.240;2023-02-15T02:01:32;14.65;;;9.35;;
24843;SDS011;12921;51.392;12.240;2023-02-15T02:06:30;0.50;;;0.50;;
24843;SDS011;12921;51.392;12.240;2023-02-15T02:08:57;5.05;;;4.68;;
24843;SDS011;12921;51.392;12.240;2023-02-15T02:11:24;0.25;;;0.25;;
24843;SDS011;12921;51.392;12.240;2023-02-15T02:13:50;0.20;;;0.20;;
24843;SDS011;12921;51.392;12.240;2023-02-15T02:31:38;7.65;;;4.32;;
24843;SDS011;12921;51.392;12.240;2023-02-15T02:34:11;0.20;;;0.20;;
24843;SDS011;12921;51.392;12.240;2023-02-15T02:44:23;6.10;;;3.72;;
24843;SDS011;12921;51.392;12.240;2023-02-15T02:46:51;0.22;;;0.22;;
24843;SDS011;12921;51.392;12.240;2023-02-15T02:49:35;0.90;;;0.90;;
24843;SDS011;12921;51.392;12.240;2023-02-15T02:52:02;4.78;;;2.95;;
24843;SDS011;12921;51.392;12.240;2023-02-15T02:54:29;9.27;;;4.88;;
24843;SDS011;12921;51.392;12.240;2023-02-15T02:56:56;2.15;;;1.60;;
24843;SDS011;12921;51.392;12.240;2023-02-15T02:59:33;15.93;;;8.52;;
24843;SDS011;12921;51.392;12.240;2023-02-15T03:02:04;2.63;;;2.42;;
24843;SDS011;12921;51.392;12.240;2023-02-15T03:04:35;10.23;;;4.88;;
24843;SDS011;12921;51.392;12.240;2023-02-15T03:07:05;5.13;;;3.47;;
24843;SDS011;12921;51.392;12.240;2023-02-15T03:09:33;6.70;;;5.13;;
24843;SDS011;12921;51.392;12.240;2023-02-15T03:12:14;2.92;;;2.65;;
24843;SDS011;12921;51.392;12.240;2023-02-15T03:14:42;16.70;;;3.15;;
24843;SDS011;12921;51.392;12.240;2023-02-15T03:17:10;3.35;;;2.47;;
24843;SDS011;12921;51.392;12.240;2023-02-15T03:19:37;8.13;;;3.92;;
24843;SDS011;12921;51.392;12.240;2023-02-15T03:22:26;0.30;;;0.30;;
24843;SDS011;12921;51.392;12.240;2023-02-15T03:24:59;1.40;;;1.35;;
24843;SDS011;12921;51.392;12.240;2023-02-15T03:27:26;10.43;;;3.53;;
24843;SDS011;12921;51.392;12.240;2023-02-15T03:29:53;9.00;;;5.80;;
24843;SDS011;12921;51.392;12.240;2023-02-15T03:32:20;8.10;;;4.20;;
24843;SDS011;12921;51.392;12.240;2023-02-15T03:34:47;10.93;;;6.63;;
24843;SDS011;12921;51.392;12.240;2023-02-15T03:37:14;1.15;;;1.15;;
24843;SDS011;12921;51.392;12.240;2023-02-15T03:39:51;9.18;;;4.13;;
24843;SDS011;12921;51.392;12.240;2023-02-15T03:42:20;12.23;;;7.15;;
24843;SDS011;12921;51.392;12.240;2023-02-15T03:44:54;27.33;;;10.18;;
24843;SDS011;12921;51.392;12.240;2023-02-15T03:47:23;18.95;;;9.10;;
24843;SDS011;12921;51.392;12.240;2023-02-15T03:49:56;3.38;;;2.58;;
24843;SDS011;12921;51.392;12.240;2023-02-15T03:52:25;1.92;;;1.83;;
24843;SDS011;12921;51.392;12.240;2023-02-15T03:54:51;3.30;;;1.75;;
24843;SDS011;12921;51.392;12.240;2023-02-15T03:57:22;18.70;;;6.85;;
24843;SDS011;12921;51.392;12.240;2023-02-15T04:00:14;0.20;;;0.20;;
24843;SDS011;12921;51.392;12.240;2023-02-15T04:05:28;0.32;;;0.32;;
24843;SDS011;12921;51.392;12.240;2023-02-15T04:07:54;0.30;;;0.30;;
24843;SDS011;12921;51.392;12.240;2023-02-15T04:10:20;2.20;;;2.05;;
24843;SDS011;12921;51.392;12.240;2023-02-15T04:13:04;4.43;;;2.72;;
24843;SDS011;12921;51.392;12.240;2023-02-15T04:15:30;6.60;;;4.65;;
24843;SDS011;12921;51.392;12.240;2023-02-15T04:18:15;1.08;;;1.05;;
24843;SDS011;12921;51.392;12.240;2023-02-15T04:20:44;4.50;;;3.30;;
24843;SDS011;12921;51.392;12.240;2023-02-15T04:23:29;4.43;;;3.30;;
24843;SDS011;12921;51.392;12.240;2023-02-15T04:26:13;53.50;;;14.90;;
24843;SDS011;12921;51.392;12.240;2023-02-15T04:28:39;21.67;;;9.50;;
24843;SDS011;12921;51.392;12.240;2023-02-15T04:31:05;16.08;;;9.68;;
24843;SDS011;12921;51.392;12.240;2023-02-15T04:33:31;12.05;;;4.35;;
24843;SDS011;12921;51.392;12.240;2023-02-15T04:35:57;10.23;;;6.60;;
24843;SDS011;12921;51.392;12.240;2023-02-15T04:38:23;9.57;;;7.28;;
24843;SDS011;12921;51.392;12.240;2023-02-15T04:40:50;7.63;;;4.05;;
24843;SDS011;12921;51.392;12.240;2023-02-15T04:43:19;5.82;;;4.60;;
24843;SDS011;12921;51.392;12.240;2023-02-15T04:45:48;1.27;;;1.20;;
24843;SDS011;12921;51.392;12.240;2023-02-15T04:48:18;5.43;;;3.67;;
24843;SDS011;12921;51.392;12.240;2023-02-15T04:50:44;4.80;;;1.83;;
24843;SDS011;12921;51.392;12.240;2023-02-15T04:53:10;8.50;;;5.20;;
24843;SDS011;12921;51.392;12.240;2023-02-15T04:55:36;13.95;;;9.23;;
24843;SDS011;12921;51.392;12.240;2023-02-15T04:58:02;13.88;;;6.78;;
24843;SDS011;12921;51.392;12.240;2023-02-15T05:00:28;4.38;;;3.78;;
24843;SDS011;12921;51.392;12.240;2023-02-15T05:02:54;12.57;;;7.60;;
24843;SDS011;12921;51.392;12.240;2023-02-15T05:05:20;7.68;;;4.00;;
24843;SDS011;12921;51.392;12.240;2023-02-15T05:07:46;0.40;;;0.40;;
24843;SDS011;12921;51.392;12.240;2023-02-15T05:10:12;3.13;;;1.08;;
24843;SDS011;12921;51.392;12.240;2023-02-15T05:12:38;0.30;;;0.30;;
24843;SDS011;12921;51.392;12.240;2023-02-15T05:15:04;3.63;;;3.33;;
24843;SDS011;12921;51.392;12.240;2023-02-15T05:17:30;4.38;;;2.55;;
24843;SDS011;12921;51.392;12.240;2023-02-15T05:19:56;5.57;;;4.70;;
24843;SDS011;12921;51.392;12.240;2023-02-15T05:22:22;13.38;;;7.20;;
24843;SDS011;12921;51.392;12.240;2023-02-15T05:24:48;1.92;;;1.83;;
24843;SDS011;12921;51.392;12.240;2023-02-15T05:27:33;6.68;;;5.82;;
24843;SDS011;12921;51.392;12.240;2023-02-15T05:30:17;0.95;;;0.95;;
24843;SDS011;12921;51.392;12.240;2023-02-15T05:32:43;2.15;;;2.00;;
24843;SDS011;12921;51.392;12.240;2023-02-15T05:35:12;4.80;;;3.00;;
24843;SDS011;12921;51.392;12.240;2023-02-15T05:37:39;6.20;;;4.22;;
24843;SDS011;12921;51.392;12.240;2023-02-15T05:40:05;10.07;;;6.85;;
24843;SDS011;12921;51.392;12.240;2023-02-15T05:42:31;5.22;;;4.72;;
24843;SDS011;12921;51.392;12.240;2023-02-15T05:44:57;8.23;;;5.05;;
24843;SDS011;12921;51.392;12.240;2023-02-15T05:47:23;2.50;;;1.77;;
24843;SDS011;12921;51.392;12.240;2023-02-15T05:49:49;1.52;;;1.17;;
24843;SDS011;12921;51.392;12.240;2023-02-15T05:52:15;3.17;;;2.88;;
24843;SDS011;12921;51.392;12.240;2023-02-15T05:54:41;0.93;;;0.90;;
24843;SDS011;12921;51.392;12.240;2023-02-15T05:57:07;5.78;;;3.28;;
24843;SDS011;12921;51.392;12.240;2023-02-15T05:59:33;3.50;;;1.92;;
24843;SDS011;12921;51.392;12.240;2023-02-15T06:01:59;1.50;;;1.00;;
24843;SDS011;12921;51.392;12.240;2023-02-15T06:04:25;9.30;;;5.60;;
24843;SDS011;12921;51.392;12.240;2023-02-15T06:06:51;2.35;;;2.17;;
24843;SDS011;12921;51.392;12.240;2023-02-15T06:09:17;8.68;;;3.17;;
24843;SDS011;12921;51.392;12.240;2023-02-15T06:11:44;1.02;;;1.02;;
24843;SDS011;12921;51.392;12.240;2023-02-15T06:14:10;1.67;;;1.55;;
24843;SDS011;12921;51.392;12.240;2023-02-15T06:16:36;5.07;;;4.03;;
24843;SDS011;12921;51.392;12.240;2023-02-15T06:19:02;0.30;;;0.30;;
24843;SDS011;12921;51.392;12.240;2023-02-15T06:21:29;13.65;;;6.55;;
24843;SDS011;12921;51.392;12.240;2023-02-15T06:23:56;4.15;;;2.55;;
24843;SDS011;12921;51.392;12.240;2023-02-15T06:26:22;11.23;;;6.68;;
24843;SDS011;12921;51.392;12.240;2023-02-15T06:28:48;8.10;;;5.15;;
24843;SDS011;12921;51.392;12.240;2023-02-15T06:31:14;9.80;;;5.38;;
24843;SDS011;12921;51.392;12.240;2023-02-15T06:33:40;7.35;;;4.22;;
24843;SDS011;12921;51.392;12.240;2023-02-15T06:36:06;0.57;;;0.57;;
24843;SDS011;12921;51.392;12.240;2023-02-15T06:38:32;2.65;;;2.47;;
24843;SDS011;12921;51.392;12.240;2023-02-15T06:40:58;1.95;;;0.73;;
24843;SDS011;12921;51.392;12.240;2023-02-15T06:43:24;1.10;;;1.10;;
24843;SDS011;12921;51.392;12.240;2023-02-15T06:45:50;5.20;;;1.90;;
24843;SDS011;12921;51.392;12.240;2023-02-15T06:48:16;5.55;;;2.50;;
24843;SDS011;12921;51.392;12.240;2023-02-15T06:50:42;2.67;;;2.20;;
24843;SDS011;12921;51.392;12.240;2023-02-15T06:53:08;2.90;;;2.70;;
24843;SDS011;12921;51.392;12.240;2023-02-15T06:55:34;14.88;;;9.18;;
24843;SDS011;12921;51.392;12.240;2023-02-15T06:58:00;1.55;;;1.42;;
24843;SDS011;12921;51.392;12.240;2023-02-15T07:00:26;2.53;;;2.33;;
24843;SDS011;12921;51.392;12.240;2023-02-15T07:02:53;2.10;;;1.80;;
24843;SDS011;12921;51.392;12.240;2023-02-15T07:05:20;6.95;;;5.25;;
24843;SDS011;12921;51.392;12.240;2023-02-15T07:07:46;2.58;;;2.38;;
24843;SDS011;12921;51.392;12.240;2023-02-15T07:10:12;2.50;;;1.33;;
24843;SDS011;12921;51.392;12.240;2023-02-15T07:12:38;14.52;;;4.97;;
24843;SDS011;12921;51.392;12.240;2023-02-15T07:15:14;3.55;;;2.15;;
24843;SDS011;12921;51.392;12.240;2023-02-15T07:17:40;8.95;;;3.55;;
24843;SDS011;12921;51.392;12.240;2023-02-15T07:20:08;13.52;;;7.13;;
24843;SDS011;12921;51.392;12.240;2023-02-15T07:22:35;3.63;;;3.15;;
24843;SDS011;12921;51.392;12.240;2023-02-15T07:25:03;6.28;;;4.60;;
24843;SDS011;12921;51.392;12.240;2023-02-15T07:27:29;7.60;;;4.93;;
24843;SDS011;12921;51.392;12.240;2023-02-15T07:29:55;24.15;;;8.57;;
24843;SDS011;12921;51.392;12.240;2023-02-15T07:32:21;31.33;;;8.68;;
24843;SDS011;12921;51.392;12.240;2023-02-15T07:34:47;6.97;;;3.67;;
24843;SDS011;12921;51.392;12.240;2023-02-15T07:37:13;24.58;;;7.50;;
24843;SDS011;12921;51.392;12.240;2023-02-15T07:39:39;7.03;;;4.90;;
24843;SDS011;12921;51.392;12.240;2023-02-15T07:42:05;3.70;;;3.08;;
24843;SDS011;12921;51.392;12.240;2023-02-15T07:44:31;3.15;;;2.38;;
24843;SDS011;12921;51.392;12.240;2023-02-15T07:46:57;18.80;;;6.57;;
24843;SDS011;12921;51.392;12.240;2023-02-15T07:49:23;9.90;;;5.43;;
24843;SDS011;12921;51.392;12.240;2023-02-15T07:51:49;10.68;;;6.25;;
24843;SDS011;12921;51.392;12.240;2023-02-15T07:54:15;25.65;;;6.00;;
24843;SDS011;12921;51.392;12.240;2023-02-15T07:56:41;9.73;;;6.13;;
24843;SDS011;12921;51.392;12.240;2023-02-15T07:59:07;24.77;;;11.95;;
24843;SDS011;12921;51.392;12.240;2023-02-15T08:01:34;18.90;;;10.18;;
24843;SDS011;12921;51.392;12.240;2023-02-15T08:04:02;28.90;;;14.77;;
24843;SDS011;12921;51.392;12.240;2023-02-15T08:06:29;35.80;;;13.73;;
24843;SDS011;12921;51.392;12.240;2023-02-15T08:08:55;20.15;;;12.18;;
24843;SDS011;12921;51.392;12.240;2023-02-15T08:11:27;14.60;;;7.63;;
24843;SDS011;12921;51.392;12.240;2023-02-15T08:14:01;8.85;;;5.65;;
24843;SDS011;12921;51.392;12.240;2023-02-15T08:18:58;28.40;;;14.73;;
24843;SDS011;12921;51.392;12.240;2023-02-15T08:21:25;13.63;;;7.68;;
24843;SDS011;12921;51.392;12.240;2023-02-15T08:23:52;16.23;;;8.68;;
24843;SDS011;12921;51.392;12.240;2023-02-15T08:26:18;12.32;;;6.68;;
24843;SDS011;12921;51.392;12.240;2023-02-15T08:28:44;12.60;;;7.85;;
24843;SDS011;12921;51.392;12.240;2023-02-15T08:31:11;3.20;;;2.38;;
24843;SDS011;12921;51.392;12.240;2023-02-15T08:33:38;3.70;;;1.02;;
24843;SDS011;12921;51.392;12.240;2023-02-15T08:36:05;16.75;;;6.60;;
24843;SDS011;12921;51.392;12.240;2023-02-15T08:38:32;2.83;;;1.95;;
24843;SDS011;12921;51.392;12.240;2023-02-15T08:41:08;26.77;;;12.82;;
24843;SDS011;12921;51.392;12.240;2023-02-15T08:43:34;29.15;;;12.60;;
24843;SDS011;12921;51.392;12.240;2023-02-15T08:46:00;26.02;;;13.40;;
24843;SDS011;12921;51.392;12.240;2023-02-15T08:48:26;26.05;;;11.95;;
24843;SDS011;12921;51.392;12.240;2023-02-15T08:50:52;22.08;;;14.02;;
24843;SDS011;12921;51.392;12.240;2023-02-15T08:53:18;23.58;;;12.57;;
24843;SDS011;12921;51.392;12.240;2023-02-15T08:55:46;18.92;;;9.45;;
24843;SDS011;12921;51.392;12.240;2023-02-15T08:58:12;32.40;;;15.57;;
24843;SDS011;12921;51.392;12.240;2023-02-15T09:00:38;19.02;;;11.30;;
24843;SDS011;12921;51.392;12.240;2023-02-15T09:03:04;26.13;;;15.40;;
24843;SDS011;12921;51.392;12.240;2023-02-15T09:05:30;21.70;;;10.85;;
24843;SDS011;12921;51.392;12.240;2023-02-15T09:07:56;29.25;;;13.27;;
24843;SDS011;12921;51.392;12.240;2023-02-15T09:10:22;31.35;;;16.42;;
24843;SDS011;12921;51.392;12.240;2023-02-15T09:12:48;21.85;;;10.52;;
24843;SDS011;12921;51.392;12.240;2023-02-15T09:15:15;14.15;;;7.68;;
24843;SDS011;12921;51.392;12.240;2023-02-15T09:17:41;11.15;;;7.05;;
24843;SDS011;12921;51.392;12.240;2023-02-15T09:20:08;10.00;;;6.18;;
24843;SDS011;12921;51.392;12.240;2023-02-15T09:22:34;13.77;;;6.05;;
24843;SDS011;12921;51.392;12.240;2023-02-15T09:25:00;13.05;;;8.82;;
24843;SDS011;12921;51.392;12.240;2023-02-15T09:27:26;13.07;;;8.50;;
24843;SDS011;12921;51.392;12.240;2023-02-15T09:29:52;5.22;;;2.80;;
24843;SDS011;12921;51.392;12.240;2023-02-15T09:32:18;5.40;;;4.70;;
24843;SDS011;12921;51.392;12.240;2023-02-15T09:34:43;10.20;;;6.65;;
24843;SDS011;12921;51.392;12.240;2023-02-15T09:37:10;8.75;;;4.72;;
24843;SDS011;12921;51.392;12.240;2023-02-15T09:39:37;7.80;;;4.80;;
24843;SDS011;12921;51.392;12.240;2023-02-15T09:42:09;6.60;;;3.80;;
24843;SDS011;12921;51.392;12.240;2023-02-15T09:47:13;1.85;;;1.15;;
24843;SDS011;12921;51.392;12.240;2023-02-15T09:54:59;10.00;;;5.97;;
24843;SDS011;12921;51.392;12.240;2023-02-15T10:21:28;3.22;;;2.03;;
24843;SDS011;12921;51.392;12.240;2023-02-15T10:26:43;9.05;;;5.95;;
24843;SDS011;12921;51.392;12.240;2023-02-15T10:29:12;4.65;;;1.90;;
24843;SDS011;12921;51.392;12.240;2023-02-15T10:31:50;3.88;;;2.92;;
24843;SDS011;12921;51.392;12.240;2023-02-15T10:47:10;5.45;;;3.10;;
24843;SDS011;12921;51.392;12.240;2023-02-15T10:55:18;9.75;;;5.60;;
24843;SDS011;12921;51.392;12.240;2023-02-15T10:57:54;6.28;;;4.25;;
24843;SDS011;12921;51.392;12.240;2023-02-15T11:00:26;8.27;;;5.38;;
24843;SDS011;12921;51.392;12.240;2023-02-15T11:03:02;9.88;;;6.03;;
24843;SDS011;12921;51.392;12.240;2023-02-15T11:12:52;8.35;;;5.78;;
24843;SDS011;12921;51.392;12.240;2023-02-15T11:15:21;9.18;;;5.88;;
24843;SDS011;12921;51.392;12.240;2023-02-15T11:18:37;5.22;;;2.90;;
24843;SDS011;12921;51.392;12.240;2023-02-15T11:23:13;2.85;;;2.65;;
24843;SDS011;12921;51.392;12.240;2023-02-15T11:25:47;6.50;;;4.80;;
24843;SDS011;12921;51.392;12.240;2023-02-15T11:28:19;1.17;;;0.93;;
24843;SDS011;12921;51.392;12.240;2023-02-15T11:30:49;6.28;;;3.70;;
24843;SDS011;12921;51.392;12.240;2023-02-15T11:33:18;7.43;;;4.78;;
24843;SDS011;12921;51.392;12.240;2023-02-15T11:35:55;6.47;;;4.20;;
24843;SDS011;12921;51.392;12.240;2023-02-15T11:38:22;11.27;;;5.75;;
24843;SDS011;12921;51.392;12.240;2023-02-15T11:40:52;6.15;;;3.50;;
24843;SDS011;12921;51.392;12.240;2023-02-15T11:43:42;6.15;;;4.78;;
24843;SDS011;12921;51.392;12.240;2023-02-15T11:46:09;8.55;;;5.28;;
24843;SDS011;12921;51.392;12.240;2023-02-15T11:48:36;4.68;;;3.72;;
24843;SDS011;12921;51.392;12.240;2023-02-15T11:51:03;8.27;;;5.50;;
24843;SDS011;12921;51.392;12.240;2023-02-15T11:53:32;6.85;;;4.32;;
24843;SDS011;12921;51.392;12.240;2023-02-15T11:55:58;7.70;;;4.82;;
24843;SDS011;12921;51.392;12.240;2023-02-15T11:58:40;5.40;;;3.65;;
24843;SDS011;12921;51.392;12.240;2023-02-15T12:03:48;2.28;;;1.55;;
24843;SDS011;12921;51.392;12.240;2023-02-15T12:06:16;2.63;;;2.20;;
24843;SDS011;12921;51.392;12.240;2023-02-15T12:08:46;8.10;;;4.65;;
24843;SDS011;12921;51.392;12.240;2023-02-15T12:11:19;7.13;;;4.78;;
24843;SDS011;12921;51.392;12.240;2023-02-15T12:14:00;5.97;;;4.25;;
24843;SDS011;12921;51.392;12.240;2023-02-15T12:16:29;9.68;;;4.28;;
24843;SDS011;12921;51.392;12.240;2023-02-15T12:18:58;4.57;;;3.60;;
24843;SDS011;12921;51.392;12.240;2023-02-15T12:23:52;4.72;;;3.05;;
24843;SDS011;12921;51.392;12.240;2023-02-15T12:26:34;2.50;;;1.98;;
24843;SDS011;12921;51.392;12.240;2023-02-15T12:29:01;6.72;;;2.95;;
24843;SDS011;12921;51.392;12.240;2023-02-15T12:33:59;5.93;;;3.88;;
24843;SDS011;12921;51.392;12.240;2023-02-15T12:36:31;6.07;;;3.90;;
24843;SDS011;12921;51.392;12.240;2023-02-15T12:41:30;0.52;;;0.52;;
24843;SDS011;12921;51.392;12.240;2023-02-15T12:44:30;4.60;;;2.28;;
24843;SDS011;12921;51.392;12.240;2023-02-15T12:47:00;5.20;;;3.13;;
24843;SDS011;12921;51.392;12.240;2023-02-15T12:49:28;7.78;;;3.15;;
24843;SDS011;12921;51.392;12.240;2023-02-15T12:51:58;7.05;;;3.92;;
24843;SDS011;12921;51.392;12.240;2023-02-15T12:56:50;6.10;;;3.38;;
24843;SDS011;12921;51.392;12.240;2023-02-15T12:59:16;6.22;;;3.28;;
24843;SDS011;12921;51.392;12.240;2023-02-15T13:01:47;5.22;;;3.47;;
24843;SDS011;12921;51.392;12.240;2023-02-15T13:04:35;6.50;;;3.97;;
24843;SDS011;12921;51.392;12.240;2023-02-15T13:07:01;7.53;;;3.85;;
24843;SDS011;12921;51.392;12.240;2023-02-15T13:12:03;6.82;;;3.50;;
24843;SDS011;12921;51.392;12.240;2023-02-15T13:14:34;5.75;;;3.58;;
24843;SDS011;12921;51.392;12.240;2023-02-15T13:17:02;4.97;;;3.60;;
24843;SDS011;12921;51.392;12.240;2023-02-15T13:19:42;5.00;;;3.35;;
24843;SDS011;12921;51.392;12.240;2023-02-15T13:22:12;5.22;;;2.70;;
24843;SDS011;12921;51.392;12.240;2023-02-15T13:24:48;3.28;;;2.38;;
24843;SDS011;12921;51.392;12.240;2023-02-15T13:27:19;4.80;;;2.78;;
24843;SDS011;12921;51.392;12.240;2023-02-15T13:29:56;5.22;;;3.83;;
24843;SDS011;12921;51.392;12.240;2023-02-15T13:32:34;9.30;;;3.53;;
24843;SDS011;12921;51.392;12.240;2023-02-15T13:35:02;4.07;;;3.10;;
24843;SDS011;12921;51.392;12.240;2023-02-15T13:42:56;8.18;;;3.65;;
24843;SDS011;12921;51.392;12.240;2023-02-15T14:16:11;3.70;;;2.42;;
24843;SDS011;12921;51.392;12.240;2023-02-15T14:18:40;5.82;;;3.97;;
24843;SDS011;12921;51.392;12.240;2023-02-15T14:21:42;3.45;;;2.58;;
24843;SDS011;12921;51.392;12.240;2023-02-15T14:29:16;5.13;;;3.15;;
24843;SDS011;12921;51.392;12.240;2023-02-15T14:31:47;1.55;;;1.45;;
24843;SDS011;12921;51.392;12.240;2023-02-15T14:34:19;9.82;;;1.63;;
24843;SDS011;12921;51.392;12.240;2023-02-15T14:36:46;2.08;;;1.67;;
24843;SDS011;12921;51.392;12.240;2023-02-15T14:39:21;4.55;;;2.05;;
24843;SDS011;12921;51.392;12.240;2023-02-15T14:42:12;2.42;;;1.48;;
24843;SDS011;12921;51.392;12.240;2023-02-15T14:44:47;5.35;;;2.90;;
24843;SDS011;12921;51.392;12.240;2023-02-15T14:49:43;0.10;;;0.10;;
24843;SDS011;12921;51.392;12.240;2023-02-15T14:52:09;2.30;;;2.10;;
24843;SDS011;12921;51.392;12.240;2023-02-15T15:04:45;1.50;;;1.27;;
24843;SDS011;12921;51.392;12.240;2023-02-15T15:07:19;4.68;;;1.75;;
24843;SDS011;12921;51.392;12.240;2023-02-15T15:09:48;4.40;;;2.55;;
24843;SDS011;12921;51.392;12.240;2023-02-15T15:14:50;3.13;;;2.92;;
24843;SDS011;12921;51.392;12.240;2023-02-15T15:22:29;0.65;;;0.65;;
24843;SDS011;12921;51.392;12.240;2023-02-15T15:24:59;0.43;;;0.43;;
24843;SDS011;12921;51.392;12.240;2023-02-15T15:48:19;1.52;;;1.20;;
24843;SDS011;12921;51.392;12.240;2023-02-15T15:53:19;0.15;;;0.15;;
24843;SDS011;12921;51.392;12.240;2023-02-15T15:55:46;9.88;;;2.25;;
24843;SDS011;12921;51.392;12.240;2023-02-15T15:58:13;3.58;;;2.70;;
24843;SDS011;12921;51.392;12.240;2023-02-15T16:00:51;4.20;;;2.03;;
24843;SDS011;12921;51.392;12.240;2023-02-15T16:03:26;2.13;;;1.92;;
24843;SDS011;12921;51.392;12.240;2023-02-15T16:05:52;4.03;;;1.73;;
24843;SDS011;12921;51.392;12.240;2023-02-15T16:10:53;2.83;;;1.85;;
24843;SDS011;12921;51.392;12.240;2023-02-15T16:13:19;2.72;;;1.40;;
24843;SDS011;12921;51.392;12.240;2023-02-15T16:15:46;2.42;;;2.22;;
24843;SDS011;12921;51.392;12.240;2023-02-15T16:18:15;3.10;;;2.53;;
24843;SDS011;12921;51.392;12.240;2023-02-15T16:20:42;4.53;;;2.42;;
24843;SDS011;12921;51.392;12.240;2023-02-15T16:28:07;5.15;;;2.28;;
24843;SDS011;12921;51.392;12.240;2023-02-15T16:30:34;3.58;;;2.08;;
24843;SDS011;12921;51.392;12.240;2023-02-15T16:35:29;2.90;;;2.00;;
24843;SDS011;12921;51.392;12.240;2023-02-15T16:37:55;3.35;;;2.20;;
24843;SDS011;12921;51.392;12.240;2023-02-15T16:42:51;4.95;;;2.70;;
24843;SDS011;12921;51.392;12.240;2023-02-15T16:45:18;5.70;;;3.65;;
24843;SDS011;12921;51.392;12.240;2023-02-15T16:47:46;8.18;;;3.67;;
24843;SDS011;12921;51.392;12.240;2023-02-15T16:50:18;5.28;;;2.78;;
24843;SDS011;12921;51.392;12.240;2023-02-15T16:52:44;6.50;;;3.17;;
24843;SDS011;12921;51.392;12.240;2023-02-15T16:55:17;1.85;;;1.38;;
24843;SDS011;12921;51.392;12.240;2023-02-15T16:57:44;1.23;;;1.05;;
24843;SDS011;12921;51.392;12.240;2023-02-15T17:00:17;0.43;;;0.32;;
24843;SDS011;12921;51.392;12.240;2023-02-15T17:02:52;0.10;;;0.10;;
24843;SDS011;12921;51.392;12.240;2023-02-15T17:05:19;9.30;;;1.85;;
24843;SDS011;12921;51.392;12.240;2023-02-15T17:07:49;2.15;;;0.93;;
24843;SDS011;12921;51.392;12.240;2023-02-15T17:10:30;1.85;;;1.42;;
24843;SDS011;12921;51.392;12.240;2023-02-15T17:13:15;6.05;;;4.00;;
24843;SDS011;12921;51.392;12.240;2023-02-15T17:18:26;1.90;;;1.48;;
24843;SDS011;12921;51.392;12.240;2023-02-15T17:20:54;0.88;;;0.77;;
24843;SDS011;12921;51.392;12.240;2023-02-15T17:23:22;0.15;;;0.15;;
24843;SDS011;12921;51.392;12.240;2023-02-15T17:25:51;3.70;;;1.35;;
24843;SDS011;12921;51.392;12.240;2023-02-15T17:28:19;0.30;;;0.30;;
24843;SDS011;12921;51.392;12.240;2023-02-15T17:30:45;0.98;;;0.93;;
24843;SDS011;12921;51.392;12.240;2023-02-15T17:36:06;9.85;;;6.47;;
24843;SDS011;12921;51.392;12.240;2023-02-15T17:38:39;6.90;;;3.17;;
24843;SDS011;12921;51.392;12.240;2023-02-15T17:41:06;5.03;;;2.13;;
24843;SDS011;12921;51.392;12.240;2023-02-15T17:43:33;4.57;;;2.90;;
24843;SDS011;12921;51.392;12.240;2023-02-15T17:45:59;5.47;;;3.22;;
24843;SDS011;12921;51.392;12.240;2023-02-15T17:50:55;7.55;;;2.70;;
24843;SDS011;12921;51.392;12.240;2023-02-15T17:53:21;8.48;;;3.80;;
24843;SDS011;12921;51.392;12.240;2023-02-15T17:55:47;3.60;;;2.88;;
24843;SDS011;12921;51.392;12.240;2023-02-15T17:58:14;4.20;;;2.25;;
24843;SDS011;12921;51.392;12.240;2023-02-15T18:00:44;0.30;;;0.30;;
24843;SDS011;12921;51.392;12.240;2023-02-15T18:03:50;1.67;;;1.58;;
24843;SDS011;12921;51.392;12.240;2023-02-15T18:06:34;0.52;;;0.52;;
24843;SDS011;12921;51.392;12.240;2023-02-15T18:09:20;6.13;;;5.68;;
24843;SDS011;12921;51.392;12.240;2023-02-15T18:21:49;8.75;;;5.97;;
24843;SDS011;12921;51.392;12.240;2023-02-15T18:24:22;7.50;;;4.47;;
24843;SDS011;12921;51.392;12.240;2023-02-15T18:26:49;2.10;;;1.13;;